sensor_id;sensor_type;location;lat;lon;timestamp;P1;durP1;ratioP1;P2;durP2;ratioP2
70951;SDS011;69214;55.880;37.542;2023-07-29T00:01:13;3.08;;;0.50;;
70951;SDS011;69214;55.880;37.542;2023-07-29T00:03:39;1.87;;;0.57;;
70951;SDS011;69214;55.880;37.542;2023-07-29T00:06:04;3.25;;;0.60;;
70951;SDS011;69214;55.880;37.542;2023-07-29T00:08:30;2.60;;;0.50;;
70951;SDS011;69214;55.880;37.542;2023-07-29T00:10:56;1.40;;;0.50;;
70951;SDS011;69214;55.880;37.542;2023-07-29T00:13:22;2.65;;;0.75;;
70951;SDS011;69214;55.880;37.542;2023-07-29T00:15:48;2.00;;;0.50;;
70951;SDS011;69214;55.880;37.542;2023-07-29T00:18:13;4.32;;;0.70;;
70951;SDS011;69214;55.880;37.542;2023-07-29T00:20:39;1.75;;;0.50;;
70951;SDS011;69214;55.880;37.542;2023-07-29T00:23:05;4.00;;;0.60;;
70951;SDS011;69214;55.880;37.542;2023-07-29T00:25:31;1.60;;;0.50;;
70951;SDS011;69214;55.880;37.542;2023-07-29T00:27:56;1.73;;;0.55;;
70951;SDS011;69214;55.880;37.542;2023-07-29T00:30:24;3.17;;;0.80;;
70951;SDS011;69214;55.880;37.542;2023-07-29T00:32:49;3.70;;;0.70;;
70951;SDS011;69214;55.880;37.542;2023-07-29T00:35:15;2.53;;;0.60;;
70951;SDS011;69214;55.880;37.542;2023-07-29T00:37:41;3.77;;;0.50;;
70951;SDS011;69214;55.880;37.542;2023-07-29T00:40:19;2.13;;;0.55;;
70951;SDS011;69214;55.880;37.542;2023-07-29T00:42:47;4.50;;;0.70;;
70951;SDS011;69214;55.880;37.542;2023-07-29T00:45:14;1.83;;;0.50;;
70951;SDS011;69214;55.880;37.542;2023-07-29T00:47:40;1.77;;;0.60;;
70951;SDS011;69214;55.880;37.542;2023-07-29T00:50:09;2.83;;;0.80;;
70951;SDS011;69214;55.880;37.542;2023-07-29T00:52:36;3.08;;;0.70;;
70951;SDS011;69214;55.880;37.542;2023-07-29T00:55:03;2.13;;;0.75;;
70951;SDS011;69214;55.880;37.542;2023-07-29T00:57:30;3.63;;;0.55;;
70951;SDS011;69214;55.880;37.542;2023-07-29T00:59:56;3.77;;;0.77;;
70951;SDS011;69214;55.880;37.542;2023-07-29T01:02:22;2.17;;;0.63;;
70951;SDS011;69214;55.880;37.542;2023-07-29T01:04:58;2.47;;;0.70;;
70951;SDS011;69214;55.880;37.542;2023-07-29T01:10:30;4.70;;;0.90;;
70951;SDS011;69214;55.880;37.542;2023-07-29T01:18:24;2.00;;;0.60;;
70951;SDS011;69214;55.880;37.542;2023-07-29T01:20:54;2.75;;;0.75;;
70951;SDS011;69214;55.880;37.542;2023-07-29T01:23:24;5.30;;;1.03;;
70951;SDS011;69214;55.880;37.542;2023-07-29T01:25:51;2.65;;;0.57;;
70951;SDS011;69214;55.880;37.542;2023-07-29T01:28:17;2.88;;;0.70;;
70951;SDS011;69214;55.880;37.542;2023-07-29T01:30:43;2.38;;;0.68;;
70951;SDS011;69214;55.880;37.542;2023-07-29T01:33:14;2.20;;;0.60;;
70951;SDS011;69214;55.880;37.542;2023-07-29T01:35:47;1.80;;;0.60;;
70951;SDS011;69214;55.880;37.542;2023-07-29T01:38:21;2.35;;;0.70;;
70951;SDS011;69214;55.880;37.542;2023-07-29T01:40:56;2.13;;;0.60;;
70951;SDS011;69214;55.880;37.542;2023-07-29T01:43:24;2.17;;;0.55;;
70951;SDS011;69214;55.880;37.542;2023-07-29T01:45:52;2.03;;;0.50;;
70951;SDS011;69214;55.880;37.542;2023-07-29T01:48:18;5.73;;;0.97;;
70951;SDS011;69214;55.880;37.542;2023-07-29T01:50:44;1.30;;;0.50;;
70951;SDS011;69214;55.880;37.542;2023-07-29T01:53:10;4.13;;;0.75;;
70951;SDS011;69214;55.880;37.542;2023-07-29T01:55:37;2.70;;;0.70;;
70951;SDS011;69214;55.880;37.542;2023-07-29T01:58:04;3.03;;;0.87;;
70951;SDS011;69214;55.880;37.542;2023-07-29T02:00:30;3.20;;;1.00;;
70951;SDS011;69214;55.880;37.542;2023-07-29T02:02:56;1.98;;;0.70;;
70951;SDS011;69214;55.880;37.542;2023-07-29T02:05:22;2.00;;;0.70;;
70951;SDS011;69214;55.880;37.542;2023-07-29T02:07:47;2.95;;;0.80;;
70951;SDS011;69214;55.880;37.542;2023-07-29T02:10:14;3.28;;;1.02;;
70951;SDS011;69214;55.880;37.542;2023-07-29T02:12:40;2.90;;;0.93;;
70951;SDS011;69214;55.880;37.542;2023-07-29T02:15:06;1.80;;;0.50;;
70951;SDS011;69214;55.880;37.542;2023-07-29T02:17:32;7.25;;;1.05;;
70951;SDS011;69214;55.880;37.542;2023-07-29T02:19:58;4.45;;;0.70;;
70951;SDS011;69214;55.880;37.542;2023-07-29T02:22:25;2.78;;;0.95;;
70951;SDS011;69214;55.880;37.542;2023-07-29T02:24:51;3.43;;;0.83;;
70951;SDS011;69214;55.880;37.542;2023-07-29T02:27:17;3.80;;;0.80;;
70951;SDS011;69214;55.880;37.542;2023-07-29T02:29:43;2.42;;;0.80;;
70951;SDS011;69214;55.880;37.542;2023-07-29T02:32:08;1.60;;;0.67;;
70951;SDS011;69214;55.880;37.542;2023-07-29T02:34:34;4.88;;;1.13;;
70951;SDS011;69214;55.880;37.542;2023-07-29T02:37:00;5.45;;;1.20;;
70951;SDS011;69214;55.880;37.542;2023-07-29T02:39:26;2.43;;;0.90;;
70951;SDS011;69214;55.880;37.542;2023-07-29T02:41:52;3.55;;;1.10;;
70951;SDS011;69214;55.880;37.542;2023-07-29T02:44:18;4.07;;;1.13;;
70951;SDS011;69214;55.880;37.542;2023-07-29T02:46:46;2.15;;;0.65;;
70951;SDS011;69214;55.880;37.542;2023-07-29T02:49:12;2.83;;;1.00;;
70951;SDS011;69214;55.880;37.542;2023-07-29T02:51:38;2.95;;;0.90;;
70951;SDS011;69214;55.880;37.542;2023-07-29T02:54:04;2.67;;;1.02;;
70951;SDS011;69214;55.880;37.542;2023-07-29T02:56:30;3.00;;;0.80;;
70951;SDS011;69214;55.880;37.542;2023-07-29T02:58:57;2.50;;;0.80;;
70951;SDS011;69214;55.880;37.542;2023-07-29T03:01:23;2.60;;;0.85;;
70951;SDS011;69214;55.880;37.542;2023-07-29T03:03:51;2.38;;;0.70;;
70951;SDS011;69214;55.880;37.542;2023-07-29T03:06:17;2.75;;;0.75;;
70951;SDS011;69214;55.880;37.542;2023-07-29T03:08:42;2.47;;;0.80;;
70951;SDS011;69214;55.880;37.542;2023-07-29T03:11:09;2.83;;;0.87;;
70951;SDS011;69214;55.880;37.542;2023-07-29T03:13:36;2.90;;;1.10;;
70951;SDS011;69214;55.880;37.542;2023-07-29T03:16:06;2.80;;;0.73;;
70951;SDS011;69214;55.880;37.542;2023-07-29T03:18:48;2.65;;;0.90;;
70951;SDS011;69214;55.880;37.542;2023-07-29T03:21:14;5.57;;;1.10;;
70951;SDS011;69214;55.880;37.542;2023-07-29T03:23:40;2.85;;;0.93;;
70951;SDS011;69214;55.880;37.542;2023-07-29T03:26:06;2.75;;;1.00;;
70951;SDS011;69214;55.880;37.542;2023-07-29T03:28:37;5.32;;;0.93;;
70951;SDS011;69214;55.880;37.542;2023-07-29T03:31:05;2.53;;;0.98;;
70951;SDS011;69214;55.880;37.542;2023-07-29T03:33:32;4.63;;;0.90;;
70951;SDS011;69214;55.880;37.542;2023-07-29T03:35:58;3.83;;;1.00;;
70951;SDS011;69214;55.880;37.542;2023-07-29T03:38:24;5.20;;;1.10;;
70951;SDS011;69214;55.880;37.542;2023-07-29T03:40:50;2.88;;;0.80;;
70951;SDS011;69214;55.880;37.542;2023-07-29T03:43:16;4.60;;;1.10;;
70951;SDS011;69214;55.880;37.542;2023-07-29T03:45:42;3.67;;;0.95;;
70951;SDS011;69214;55.880;37.542;2023-07-29T03:48:08;6.10;;;0.98;;
70951;SDS011;69214;55.880;37.542;2023-07-29T03:50:35;2.53;;;0.90;;
70951;SDS011;69214;55.880;37.542;2023-07-29T03:53:02;1.88;;;0.80;;
70951;SDS011;69214;55.880;37.542;2023-07-29T03:55:29;2.93;;;0.93;;
70951;SDS011;69214;55.880;37.542;2023-07-29T03:57:56;3.75;;;1.10;;
70951;SDS011;69214;55.880;37.542;2023-07-29T04:00:22;4.22;;;1.10;;
70951;SDS011;69214;55.880;37.542;2023-07-29T04:02:49;3.42;;;1.00;;
70951;SDS011;69214;55.880;37.542;2023-07-29T04:05:15;2.53;;;1.08;;
70951;SDS011;69214;55.880;37.542;2023-07-29T04:07:41;7.40;;;1.30;;
70951;SDS011;69214;55.880;37.542;2023-07-29T04:10:07;2.85;;;1.00;;
70951;SDS011;69214;55.880;37.542;2023-07-29T04:12:33;5.38;;;1.00;;
70951;SDS011;69214;55.880;37.542;2023-07-29T04:14:59;3.08;;;0.98;;
70951;SDS011;69214;55.880;37.542;2023-07-29T04:17:26;4.17;;;1.40;;
70951;SDS011;69214;55.880;37.542;2023-07-29T04:19:52;4.10;;;1.20;;
70951;SDS011;69214;55.880;37.542;2023-07-29T04:22:19;3.67;;;1.15;;
70951;SDS011;69214;55.880;37.542;2023-07-29T04:24:46;2.15;;;0.88;;
70951;SDS011;69214;55.880;37.542;2023-07-29T04:27:12;5.93;;;1.30;;
70951;SDS011;69214;55.880;37.542;2023-07-29T04:29:38;4.03;;;1.10;;
70951;SDS011;69214;55.880;37.542;2023-07-29T04:32:04;4.22;;;1.23;;
70951;SDS011;69214;55.880;37.542;2023-07-29T04:34:30;3.22;;;1.02;;
70951;SDS011;69214;55.880;37.542;2023-07-29T04:36:59;3.22;;;0.98;;
70951;SDS011;69214;55.880;37.542;2023-07-29T04:39:26;4.27;;;1.10;;
70951;SDS011;69214;55.880;37.542;2023-07-29T04:41:52;3.15;;;0.80;;
70951;SDS011;69214;55.880;37.542;2023-07-29T04:44:17;4.75;;;1.10;;
70951;SDS011;69214;55.880;37.542;2023-07-29T04:46:44;3.53;;;1.38;;
70951;SDS011;69214;55.880;37.542;2023-07-29T04:49:10;3.70;;;1.20;;
70951;SDS011;69214;55.880;37.542;2023-07-29T04:51:36;3.15;;;1.20;;
70951;SDS011;69214;55.880;37.542;2023-07-29T04:54:02;3.00;;;1.08;;
70951;SDS011;69214;55.880;37.542;2023-07-29T04:56:28;3.33;;;1.17;;
70951;SDS011;69214;55.880;37.542;2023-07-29T04:58:54;2.70;;;0.90;;
70951;SDS011;69214;55.880;37.542;2023-07-29T05:01:20;3.03;;;1.20;;
70951;SDS011;69214;55.880;37.542;2023-07-29T05:03:46;3.53;;;1.20;;
70951;SDS011;69214;55.880;37.542;2023-07-29T05:06:12;5.22;;;1.00;;
70951;SDS011;69214;55.880;37.542;2023-07-29T05:08:38;5.90;;;1.05;;
70951;SDS011;69214;55.880;37.542;2023-07-29T05:11:04;4.97;;;1.42;;
70951;SDS011;69214;55.880;37.542;2023-07-29T05:13:30;3.83;;;0.83;;
70951;SDS011;69214;55.880;37.542;2023-07-29T05:15:56;3.05;;;0.80;;
70951;SDS011;69214;55.880;37.542;2023-07-29T05:18:22;3.40;;;0.80;;
70951;SDS011;69214;55.880;37.542;2023-07-29T05:20:49;4.25;;;1.10;;
70951;SDS011;69214;55.880;37.542;2023-07-29T05:23:15;4.28;;;1.25;;
70951;SDS011;69214;55.880;37.542;2023-07-29T05:25:41;4.50;;;1.33;;
70951;SDS011;69214;55.880;37.542;2023-07-29T05:28:07;3.60;;;1.05;;
70951;SDS011;69214;55.880;37.542;2023-07-29T05:30:34;4.07;;;0.93;;
70951;SDS011;69214;55.880;37.542;2023-07-29T05:33:03;4.95;;;0.98;;
70951;SDS011;69214;55.880;37.542;2023-07-29T05:35:30;3.33;;;0.90;;
70951;SDS011;69214;55.880;37.542;2023-07-29T05:37:56;2.53;;;0.95;;
70951;SDS011;69214;55.880;37.542;2023-07-29T05:40:22;2.42;;;0.70;;
70951;SDS011;69214;55.880;37.542;2023-07-29T05:42:48;3.08;;;1.17;;
70951;SDS011;69214;55.880;37.542;2023-07-29T05:45:14;2.77;;;0.97;;
70951;SDS011;69214;55.880;37.542;2023-07-29T05:47:40;2.20;;;0.73;;
70951;SDS011;69214;55.880;37.542;2023-07-29T05:50:06;2.40;;;0.70;;
70951;SDS011;69214;55.880;37.542;2023-07-29T05:52:33;3.28;;;1.15;;
70951;SDS011;69214;55.880;37.542;2023-07-29T05:55:00;3.53;;;0.87;;
70951;SDS011;69214;55.880;37.542;2023-07-29T05:57:26;2.85;;;0.90;;
70951;SDS011;69214;55.880;37.542;2023-07-29T05:59:53;2.33;;;0.70;;
70951;SDS011;69214;55.880;37.542;2023-07-29T06:02:19;2.63;;;0.70;;
70951;SDS011;69214;55.880;37.542;2023-07-29T06:04:45;2.13;;;0.77;;
70951;SDS011;69214;55.880;37.542;2023-07-29T06:07:10;4.32;;;0.70;;
70951;SDS011;69214;55.880;37.542;2023-07-29T06:09:36;2.50;;;0.80;;
70951;SDS011;69214;55.880;37.542;2023-07-29T06:12:02;3.73;;;0.77;;
70951;SDS011;69214;55.880;37.542;2023-07-29T06:14:28;3.58;;;0.90;;
70951;SDS011;69214;55.880;37.542;2023-07-29T06:16:54;3.50;;;0.52;;
70951;SDS011;69214;55.880;37.542;2023-07-29T06:19:20;2.80;;;0.60;;
70951;SDS011;69214;55.880;37.542;2023-07-29T06:21:46;2.00;;;0.60;;
70951;SDS011;69214;55.880;37.542;2023-07-29T06:24:12;3.58;;;0.90;;
70951;SDS011;69214;55.880;37.542;2023-07-29T06:26:38;1.83;;;0.60;;
70951;SDS011;69214;55.880;37.542;2023-07-29T06:29:04;3.67;;;0.77;;
70951;SDS011;69214;55.880;37.542;2023-07-29T06:31:30;2.00;;;0.70;;
70951;SDS011;69214;55.880;37.542;2023-07-29T06:33:58;3.15;;;0.80;;
70951;SDS011;69214;55.880;37.542;2023-07-29T06:36:24;3.17;;;1.00;;
70951;SDS011;69214;55.880;37.542;2023-07-29T06:38:50;2.00;;;0.80;;
70951;SDS011;69214;55.880;37.542;2023-07-29T06:41:16;3.47;;;0.97;;
70951;SDS011;69214;55.880;37.542;2023-07-29T06:43:42;2.35;;;0.73;;
70951;SDS011;69214;55.880;37.542;2023-07-29T06:46:08;2.58;;;1.00;;
70951;SDS011;69214;55.880;37.542;2023-07-29T06:48:34;3.63;;;0.82;;
70951;SDS011;69214;55.880;37.542;2023-07-29T06:51:00;2.47;;;0.80;;
70951;SDS011;69214;55.880;37.542;2023-07-29T06:53:27;4.47;;;1.23;;
70951;SDS011;69214;55.880;37.542;2023-07-29T06:55:53;2.25;;;0.93;;
70951;SDS011;69214;55.880;37.542;2023-07-29T06:58:19;3.17;;;0.98;;
70951;SDS011;69214;55.880;37.542;2023-07-29T07:00:47;2.53;;;0.80;;
70951;SDS011;69214;55.880;37.542;2023-07-29T07:03:13;3.47;;;0.80;;
70951;SDS011;69214;55.880;37.542;2023-07-29T07:05:38;2.95;;;1.00;;
70951;SDS011;69214;55.880;37.542;2023-07-29T07:08:05;3.40;;;0.70;;
70951;SDS011;69214;55.880;37.542;2023-07-29T07:10:31;1.95;;;0.70;;
70951;SDS011;69214;55.880;37.542;2023-07-29T07:12:59;2.13;;;0.80;;
70951;SDS011;69214;55.880;37.542;2023-07-29T07:15:25;1.95;;;0.70;;
70951;SDS011;69214;55.880;37.542;2023-07-29T07:17:51;2.00;;;0.65;;
70951;SDS011;69214;55.880;37.542;2023-07-29T07:20:17;2.22;;;0.77;;
70951;SDS011;69214;55.880;37.542;2023-07-29T07:22:43;2.37;;;0.60;;
70951;SDS011;69214;55.880;37.542;2023-07-29T07:25:09;2.25;;;0.73;;
70951;SDS011;69214;55.880;37.542;2023-07-29T07:27:35;2.22;;;0.65;;
70951;SDS011;69214;55.880;37.542;2023-07-29T07:30:02;3.25;;;0.90;;
70951;SDS011;69214;55.880;37.542;2023-07-29T07:32:30;2.97;;;1.17;;
70951;SDS011;69214;55.880;37.542;2023-07-29T07:34:59;2.22;;;0.90;;
70951;SDS011;69214;55.880;37.542;2023-07-29T07:37:25;6.13;;;0.90;;
70951;SDS011;69214;55.880;37.542;2023-07-29T07:39:51;2.90;;;0.82;;
70951;SDS011;69214;55.880;37.542;2023-07-29T07:42:16;2.90;;;1.00;;
70951;SDS011;69214;55.880;37.542;2023-07-29T07:44:42;2.10;;;0.77;;
70951;SDS011;69214;55.880;37.542;2023-07-29T07:47:08;3.20;;;0.90;;
70951;SDS011;69214;55.880;37.542;2023-07-29T07:49:34;5.22;;;0.80;;
70951;SDS011;69214;55.880;37.542;2023-07-29T07:52:00;3.67;;;1.05;;
70951;SDS011;69214;55.880;37.542;2023-07-29T07:54:25;3.57;;;0.90;;
70951;SDS011;69214;55.880;37.542;2023-07-29T07:56:51;3.30;;;1.08;;
70951;SDS011;69214;55.880;37.542;2023-07-29T07:59:17;2.25;;;0.68;;
70951;SDS011;69214;55.880;37.542;2023-07-29T08:01:43;2.17;;;0.70;;
70951;SDS011;69214;55.880;37.542;2023-07-29T08:04:09;3.38;;;0.70;;
70951;SDS011;69214;55.880;37.542;2023-07-29T08:06:34;2.55;;;0.73;;
70951;SDS011;69214;55.880;37.542;2023-07-29T08:09:02;2.53;;;0.60;;
70951;SDS011;69214;55.880;37.542;2023-07-29T08:11:28;2.53;;;0.80;;
70951;SDS011;69214;55.880;37.542;2023-07-29T08:13:54;2.88;;;0.77;;
70951;SDS011;69214;55.880;37.542;2023-07-29T08:16:20;3.80;;;0.70;;
70951;SDS011;69214;55.880;37.542;2023-07-29T08:18:45;3.35;;;0.98;;
70951;SDS011;69214;55.880;37.542;2023-07-29T08:21:12;2.60;;;0.98;;
70951;SDS011;69214;55.880;37.542;2023-07-29T08:23:38;3.15;;;0.73;;
70951;SDS011;69214;55.880;37.542;2023-07-29T08:26:04;3.67;;;1.30;;
70951;SDS011;69214;55.880;37.542;2023-07-29T08:28:35;3.17;;;0.90;;
70951;SDS011;69214;55.880;37.542;2023-07-29T08:31:02;2.22;;;0.90;;
70951;SDS011;69214;55.880;37.542;2023-07-29T08:33:29;4.03;;;0.82;;
70951;SDS011;69214;55.880;37.542;2023-07-29T08:35:55;2.97;;;0.80;;
70951;SDS011;69214;55.880;37.542;2023-07-29T08:38:21;4.10;;;1.25;;
70951;SDS011;69214;55.880;37.542;2023-07-29T08:43:24;3.63;;;1.15;;
70951;SDS011;69214;55.880;37.542;2023-07-29T08:46:00;3.10;;;1.20;;
70951;SDS011;69214;55.880;37.542;2023-07-29T08:48:33;3.80;;;1.00;;
70951;SDS011;69214;55.880;37.542;2023-07-29T08:51:09;2.88;;;1.10;;
70951;SDS011;69214;55.880;37.542;2023-07-29T08:53:36;3.47;;;1.10;;
70951;SDS011;69214;55.880;37.542;2023-07-29T08:56:03;6.30;;;1.13;;
70951;SDS011;69214;55.880;37.542;2023-07-29T08:58:30;4.25;;;1.17;;
70951;SDS011;69214;55.880;37.542;2023-07-29T09:00:57;5.50;;;1.00;;
70951;SDS011;69214;55.880;37.542;2023-07-29T09:03:23;3.90;;;1.05;;
70951;SDS011;69214;55.880;37.542;2023-07-29T09:05:49;3.95;;;0.90;;
70951;SDS011;69214;55.880;37.542;2023-07-29T09:08:16;2.83;;;0.82;;
70951;SDS011;69214;55.880;37.542;2023-07-29T09:10:42;2.67;;;1.02;;
70951;SDS011;69214;55.880;37.542;2023-07-29T09:13:08;4.70;;;1.20;;
70951;SDS011;69214;55.880;37.542;2023-07-29T09:15:35;3.70;;;1.15;;
70951;SDS011;69214;55.880;37.542;2023-07-29T09:18:09;3.95;;;1.10;;
70951;SDS011;69214;55.880;37.542;2023-07-29T09:20:43;3.20;;;1.30;;
70951;SDS011;69214;55.880;37.542;2023-07-29T09:23:09;4.15;;;1.27;;
70951;SDS011;69214;55.880;37.542;2023-07-29T09:25:36;3.27;;;1.20;;
70951;SDS011;69214;55.880;37.542;2023-07-29T09:28:07;4.35;;;1.38;;
70951;SDS011;69214;55.880;37.542;2023-07-29T09:30:44;6.13;;;1.42;;
70951;SDS011;69214;55.880;37.542;2023-07-29T09:33:11;5.07;;;1.50;;
70951;SDS011;69214;55.880;37.542;2023-07-29T09:35:38;4.18;;;1.52;;
70951;SDS011;69214;55.880;37.542;2023-07-29T09:38:04;3.97;;;1.03;;
70951;SDS011;69214;55.880;37.542;2023-07-29T09:40:37;4.15;;;1.27;;
70951;SDS011;69214;55.880;37.542;2023-07-29T09:43:04;3.65;;;1.33;;
70951;SDS011;69214;55.880;37.542;2023-07-29T09:45:33;3.90;;;1.10;;
70951;SDS011;69214;55.880;37.542;2023-07-29T09:48:00;6.22;;;1.52;;
70951;SDS011;69214;55.880;37.542;2023-07-29T09:50:28;3.50;;;1.30;;
70951;SDS011;69214;55.880;37.542;2023-07-29T09:52:54;3.55;;;1.58;;
70951;SDS011;69214;55.880;37.542;2023-07-29T09:55:22;4.88;;;1.40;;
70951;SDS011;69214;55.880;37.542;2023-07-29T09:57:56;2.72;;;1.00;;
70951;SDS011;69214;55.880;37.542;2023-07-29T10:00:27;4.13;;;1.35;;
70951;SDS011;69214;55.880;37.542;2023-07-29T10:02:54;2.90;;;1.23;;
70951;SDS011;69214;55.880;37.542;2023-07-29T10:05:22;4.05;;;1.08;;
70951;SDS011;69214;55.880;37.542;2023-07-29T10:07:51;3.67;;;0.90;;
70951;SDS011;69214;55.880;37.542;2023-07-29T10:10:17;2.35;;;0.90;;
70951;SDS011;69214;55.880;37.542;2023-07-29T10:12:43;2.78;;;1.10;;
70951;SDS011;69214;55.880;37.542;2023-07-29T10:15:09;3.97;;;1.30;;
70951;SDS011;69214;55.880;37.542;2023-07-29T10:17:36;3.45;;;1.23;;
70951;SDS011;69214;55.880;37.542;2023-07-29T10:20:03;4.55;;;1.73;;
70951;SDS011;69214;55.880;37.542;2023-07-29T10:22:36;3.53;;;1.58;;
70951;SDS011;69214;55.880;37.542;2023-07-29T10:25:04;4.53;;;1.45;;
70951;SDS011;69214;55.880;37.542;2023-07-29T10:27:56;5.27;;;1.70;;
70951;SDS011;69214;55.880;37.542;2023-07-29T10:30:29;4.00;;;1.40;;
70951;SDS011;69214;55.880;37.542;2023-07-29T10:32:58;4.30;;;1.80;;
70951;SDS011;69214;55.880;37.542;2023-07-29T10:35:26;2.88;;;1.00;;
70951;SDS011;69214;55.880;37.542;2023-07-29T10:37:53;3.67;;;1.27;;
70951;SDS011;69214;55.880;37.542;2023-07-29T10:40:20;4.17;;;1.70;;
70951;SDS011;69214;55.880;37.542;2023-07-29T10:43:31;3.28;;;1.10;;
70951;SDS011;69214;55.880;37.542;2023-07-29T10:45:42;4.15;;;1.30;;
70951;SDS011;69214;55.880;37.542;2023-07-29T10:51:44;4.22;;;1.17;;
70951;SDS011;69214;55.880;37.542;2023-07-29T10:53:55;3.47;;;0.90;;
70951;SDS011;69214;55.880;37.542;2023-07-29T10:56:28;4.85;;;1.27;;
70951;SDS011;69214;55.880;37.542;2023-07-29T10:58:56;3.45;;;1.20;;
70951;SDS011;69214;55.880;37.542;2023-07-29T11:01:28;3.17;;;0.93;;
70951;SDS011;69214;55.880;37.542;2023-07-29T11:15:23;3.17;;;0.93;;
70951;SDS011;69214;55.880;37.542;2023-07-29T11:17:51;4.72;;;1.20;;
70951;SDS011;69214;55.880;37.542;2023-07-29T11:20:19;2.93;;;0.83;;
70951;SDS011;69214;55.880;37.542;2023-07-29T11:22:47;4.30;;;1.10;;
70951;SDS011;69214;55.880;37.542;2023-07-29T11:25:14;3.78;;;1.13;;
70951;SDS011;69214;55.880;37.542;2023-07-29T11:27:42;4.70;;;1.00;;
70951;SDS011;69214;55.880;37.542;2023-07-29T11:30:09;4.13;;;1.05;;
70951;SDS011;69214;55.880;37.542;2023-07-29T11:32:38;2.77;;;0.90;;
70951;SDS011;69214;55.880;37.542;2023-07-29T11:35:06;3.08;;;0.88;;
70951;SDS011;69214;55.880;37.542;2023-07-29T11:37:34;2.97;;;0.80;;
70951;SDS011;69214;55.880;37.542;2023-07-29T11:40:01;4.13;;;1.20;;
70951;SDS011;69214;55.880;37.542;2023-07-29T11:42:31;6.18;;;1.20;;
70951;SDS011;69214;55.880;37.542;2023-07-29T11:44:59;4.97;;;1.00;;
70951;SDS011;69214;55.880;37.542;2023-07-29T11:47:26;3.80;;;1.20;;
70951;SDS011;69214;55.880;37.542;2023-07-29T11:49:52;4.88;;;1.20;;
70951;SDS011;69214;55.880;37.542;2023-07-29T11:52:18;4.93;;;1.38;;
70951;SDS011;69214;55.880;37.542;2023-07-29T11:54:46;4.32;;;1.25;;
70951;SDS011;69214;55.880;37.542;2023-07-29T11:57:13;6.17;;;1.60;;
70951;SDS011;69214;55.880;37.542;2023-07-29T11:59:40;4.30;;;1.00;;
70951;SDS011;69214;55.880;37.542;2023-07-29T12:02:13;2.95;;;0.90;;
70951;SDS011;69214;55.880;37.542;2023-07-29T12:04:41;4.13;;;1.17;;
70951;SDS011;69214;55.880;37.542;2023-07-29T12:07:09;3.15;;;0.93;;
70951;SDS011;69214;55.880;37.542;2023-07-29T12:09:35;2.03;;;0.80;;
70951;SDS011;69214;55.880;37.542;2023-07-29T12:14:53;4.40;;;0.80;;
70951;SDS011;69214;55.880;37.542;2023-07-29T12:17:23;2.58;;;0.90;;
70951;SDS011;69214;55.880;37.542;2023-07-29T12:19:48;3.17;;;0.87;;
70951;SDS011;69214;55.880;37.542;2023-07-29T12:22:18;3.63;;;1.00;;
70951;SDS011;69214;55.880;37.542;2023-07-29T12:24:45;2.47;;;0.70;;
70951;SDS011;69214;55.880;37.542;2023-07-29T12:27:14;4.47;;;1.13;;
70951;SDS011;69214;55.880;37.542;2023-07-29T12:29:41;2.92;;;0.80;;
70951;SDS011;69214;55.880;37.542;2023-07-29T12:32:09;2.63;;;0.73;;
70951;SDS011;69214;55.880;37.542;2023-07-29T12:34:37;4.70;;;0.98;;
70951;SDS011;69214;55.880;37.542;2023-07-29T12:37:07;2.55;;;0.95;;
70951;SDS011;69214;55.880;37.542;2023-07-29T12:39:33;4.63;;;0.70;;
70951;SDS011;69214;55.880;37.542;2023-07-29T12:42:01;2.28;;;0.65;;
70951;SDS011;69214;55.880;37.542;2023-07-29T12:44:32;2.40;;;0.60;;
70951;SDS011;69214;55.880;37.542;2023-07-29T12:47:01;1.70;;;0.60;;
70951;SDS011;69214;55.880;37.542;2023-07-29T12:49:29;1.90;;;0.60;;
70951;SDS011;69214;55.880;37.542;2023-07-29T12:51:58;2.83;;;0.82;;
70951;SDS011;69214;55.880;37.542;2023-07-29T12:54:25;1.95;;;0.65;;
70951;SDS011;69214;55.880;37.542;2023-07-29T12:56:51;3.93;;;0.60;;
70951;SDS011;69214;55.880;37.542;2023-07-29T12:59:17;2.83;;;0.70;;
70951;SDS011;69214;55.880;37.542;2023-07-29T13:01:43;2.13;;;0.60;;
70951;SDS011;69214;55.880;37.542;2023-07-29T13:04:09;2.70;;;0.93;;
70951;SDS011;69214;55.880;37.542;2023-07-29T13:06:35;5.93;;;0.60;;
70951;SDS011;69214;55.880;37.542;2023-07-29T13:09:01;3.05;;;0.85;;
70951;SDS011;69214;55.880;37.542;2023-07-29T13:11:28;1.98;;;0.63;;
70951;SDS011;69214;55.880;37.542;2023-07-29T13:13:54;2.30;;;0.77;;
70951;SDS011;69214;55.880;37.542;2023-07-29T13:16:20;2.47;;;0.77;;
70951;SDS011;69214;55.880;37.542;2023-07-29T13:18:46;2.85;;;0.70;;
70951;SDS011;69214;55.880;37.542;2023-07-29T13:21:12;5.45;;;0.77;;
70951;SDS011;69214;55.880;37.542;2023-07-29T13:23:38;4.20;;;0.60;;
70951;SDS011;69214;55.880;37.542;2023-07-29T13:26:04;2.33;;;0.63;;
70951;SDS011;69214;55.880;37.542;2023-07-29T13:28:30;3.35;;;0.73;;
70951;SDS011;69214;55.880;37.542;2023-07-29T13:30:56;2.63;;;0.63;;
70951;SDS011;69214;55.880;37.542;2023-07-29T13:33:22;2.78;;;0.80;;
70951;SDS011;69214;55.880;37.542;2023-07-29T13:35:48;1.65;;;0.52;;
70951;SDS011;69214;55.880;37.542;2023-07-29T13:38:14;2.63;;;0.53;;
70951;SDS011;69214;55.880;37.542;2023-07-29T13:40:39;2.65;;;0.80;;
70951;SDS011;69214;55.880;37.542;2023-07-29T13:43:05;5.82;;;1.00;;
70951;SDS011;69214;55.880;37.542;2023-07-29T13:45:31;1.97;;;0.60;;
70951;SDS011;69214;55.880;37.542;2023-07-29T13:47:57;2.38;;;0.60;;
70951;SDS011;69214;55.880;37.542;2023-07-29T13:50:23;2.75;;;0.93;;
70951;SDS011;69214;55.880;37.542;2023-07-29T13:52:49;2.85;;;0.90;;
70951;SDS011;69214;55.880;37.542;2023-07-29T13:55:15;3.57;;;0.63;;
70951;SDS011;69214;55.880;37.542;2023-07-29T13:57:40;2.30;;;0.80;;
70951;SDS011;69214;55.880;37.542;2023-07-29T14:00:07;2.20;;;0.60;;
70951;SDS011;69214;55.880;37.542;2023-07-29T14:02:41;3.93;;;0.73;;
70951;SDS011;69214;55.880;37.542;2023-07-29T14:05:08;3.05;;;0.63;;
70951;SDS011;69214;55.880;37.542;2023-07-29T14:07:35;1.80;;;0.50;;
70951;SDS011;69214;55.880;37.542;2023-07-29T14:10:00;3.13;;;0.80;;
70951;SDS011;69214;55.880;37.542;2023-07-29T14:12:29;2.45;;;0.85;;
70951;SDS011;69214;55.880;37.542;2023-07-29T14:14:55;5.33;;;1.00;;
70951;SDS011;69214;55.880;37.542;2023-07-29T14:17:21;5.10;;;0.73;;
70951;SDS011;69214;55.880;37.542;2023-07-29T14:19:47;2.80;;;0.88;;
70951;SDS011;69214;55.880;37.542;2023-07-29T14:22:13;4.30;;;1.38;;
70951;SDS011;69214;55.880;37.542;2023-07-29T14:24:39;5.27;;;0.90;;
70951;SDS011;69214;55.880;37.542;2023-07-29T14:27:05;2.58;;;0.80;;
70951;SDS011;69214;55.880;37.542;2023-07-29T14:29:31;3.80;;;1.08;;
70951;SDS011;69214;55.880;37.542;2023-07-29T14:31:57;4.18;;;0.98;;
70951;SDS011;69214;55.880;37.542;2023-07-29T14:34:23;2.93;;;1.03;;
70951;SDS011;69214;55.880;37.542;2023-07-29T14:36:48;3.72;;;0.88;;
70951;SDS011;69214;55.880;37.542;2023-07-29T14:39:14;6.15;;;0.93;;
70951;SDS011;69214;55.880;37.542;2023-07-29T14:41:40;2.73;;;1.00;;
70951;SDS011;69214;55.880;37.542;2023-07-29T14:44:06;2.15;;;0.70;;
70951;SDS011;69214;55.880;37.542;2023-07-29T14:46:32;2.53;;;0.70;;
70951;SDS011;69214;55.880;37.542;2023-07-29T14:48:58;2.30;;;0.60;;
70951;SDS011;69214;55.880;37.542;2023-07-29T14:51:23;2.83;;;0.73;;
70951;SDS011;69214;55.880;37.542;2023-07-29T14:53:49;1.77;;;0.60;;
70951;SDS011;69214;55.880;37.542;2023-07-29T14:56:15;4.13;;;0.75;;
70951;SDS011;69214;55.880;37.542;2023-07-29T14:58:44;5.07;;;0.77;;
70951;SDS011;69214;55.880;37.542;2023-07-29T15:01:11;2.90;;;0.80;;